Grissom ARB Airport
KGUS : now visible

Airfield :











YOU CAN JOIN US ON...

 
LOGIN :

Register | Disclaimer

   EN    FR    IT 

 









Legend :    VFR   Marginal VFR   IFR   Intensive IFR   Very Intensive IFR
Visi :
Ceiling :
>= 8 km
>= 3000ft
5 to 8 km
1000 to 3000 ft
1500m to 5 km
500 to 1000 ft
800 to 1500m
200 to 500 ft
< 800m
< 200 ft
Symbols :   Thunderstorms  Fog  Heavy snow  Heavy precipitations  Wind > 20 kt






- Airport Elevation : 812 ft


KGUS - Grissom ARB

CURRENT METAR :
  • 200501Z AUTO 28008KT 10SM SCT006 M10/M11 A3044 RMK AO2 SLP329 $

EXPIRED METARs :
  • 200449Z AUTO 28007KT 10SM BKN006 M10/M11 A3043 RMK AO2 BKN V SCT SLP326 $
  • 200439Z AUTO 28008KT 10SM SCT006 M10/M11 A3043 RMK AO2 SLP326 $
  • 200416Z AUTO 29009KT 10SM BKN007 BKN022 M10/M10 A3043 RMK AO2 CIG 006 RWY05 SLP326 $
  • 200401Z AUTO 28010KT 10SM BKN006 OVC022 M10/M10 A3043 RMK AO2 CIG 006V022 SLP326 $
  • 200256Z 29012KT 10SM BKN007 OVC013 M10/M10 A3042 RMK AO2A SLP322 P0000 60000 T11011103 52013 $

TAF AMD TAF KGUS
Valid from the 20 at 05:00 until the 21 at 09:00 UTC


200505Z 2005/2109 30010G15KT 9999 SCT006 QNH3041INS
TEMPO 2005/2006 30015G25KT BKN006
BECMG 2008/2009 30006KT 9999 BKN020 QNH3047INS
BECMG 2017/2018 34006KT 9999 BKN035 QNH3057INS
BECMG 2105/2106 33006KT 9999 BKN010 QNH3059INS
BECMG 2108/2109 33006KT 9999 BKN020 QNH3059INS TXM02/2020Z TNM10/2005Z



MET'MAP, your aeronautical weather chart ! - Copyright ORBIFLY December 2007 - Disclaimer

ORBIFLY MET'MAP TEAM :

Programming & Development : Alexandra Zaïnal
Concept & original design : Baudouin d'Aumeries
Assistance for programming : Marc-Olivier Méhu
Technical & hardware support : Manuel Goepfert

Contact : metmap@orbifly.com




SOURCES & CREDITS :

   NOAA       Earth
Advisory